createdAt,value
2022-12-29T00:03:33.415Z,-3.61
2022-12-29T00:06:02.033Z,-3.54
2022-12-29T00:08:40.965Z,-3.49
2022-12-29T00:11:13.101Z,-3.72
2022-12-29T00:13:58.986Z,-3.57
2022-12-29T00:16:26.122Z,-3.67
2022-12-29T00:18:53.158Z,-3.79
2022-12-29T00:21:40.525Z,-3.74
2022-12-29T00:24:29.307Z,-3.82
2022-12-29T00:27:30.094Z,-3.90
2022-12-29T00:30:15.588Z,-3.91
2022-12-29T00:33:01.141Z,-3.98
2022-12-29T00:35:32.750Z,-3.88
2022-12-29T00:38:23.514Z,-3.92
2022-12-29T00:41:08.977Z,-3.82
2022-12-29T00:43:54.640Z,-3.83
2022-12-29T00:46:21.529Z,-3.87
2022-12-29T00:49:06.613Z,-3.95
2022-12-29T00:51:33.970Z,-3.93
2022-12-29T00:54:00.889Z,-3.99
2022-12-29T00:56:27.738Z,-4.01
2022-12-29T00:58:54.517Z,-3.87
2022-12-29T01:01:21.430Z,-3.61
2022-12-29T01:03:48.265Z,-3.62
2022-12-29T01:06:15.611Z,-3.73
2022-12-29T01:08:42.376Z,-3.73
2022-12-29T01:11:12.596Z,-3.87
2022-12-29T01:13:39.778Z,-3.73
2022-12-29T01:16:07.067Z,-3.71
2022-12-29T01:18:34.446Z,-3.64
2022-12-29T01:21:03.545Z,-3.68
2022-12-29T01:23:30.992Z,-3.40
2022-12-29T01:25:57.989Z,-3.12
2022-12-29T01:28:26.294Z,-3.19
2022-12-29T01:30:53.315Z,-3.20
2022-12-29T01:33:20.060Z,-3.26
2022-12-29T01:35:46.885Z,-3.28
2022-12-29T01:38:13.685Z,-3.33
2022-12-29T01:40:47.777Z,-3.08
2022-12-29T01:43:16.030Z,-2.96
2022-12-29T01:45:51.691Z,-2.91
2022-12-29T01:48:20.074Z,-3.01
2022-12-29T01:50:53.105Z,-3.07
2022-12-29T01:53:26.095Z,-3.24
2022-12-29T01:55:57.519Z,-3.20
2022-12-29T01:58:28.566Z,-3.32
2022-12-29T02:00:55.624Z,-3.45
2022-12-29T02:03:27.603Z,-3.48
2022-12-29T02:06:03.522Z,-3.47
2022-12-29T02:08:30.925Z,-3.60
2022-12-29T02:11:00.496Z,-3.67
2022-12-29T02:13:31.711Z,-3.74
2022-12-29T02:16:24.656Z,-3.98
2022-12-29T02:19:29.861Z,-3.75
2022-12-29T02:21:56.531Z,-3.72
2022-12-29T02:24:54.424Z,-3.78
2022-12-29T02:27:58.903Z,-3.82
2022-12-29T02:30:59.246Z,-3.94
2022-12-29T02:33:55.234Z,-3.87
2022-12-29T02:36:46.877Z,-3.90
2022-12-29T02:39:23.532Z,-3.87
2022-12-29T02:42:19.338Z,-3.94
2022-12-29T02:45:27.579Z,-3.96
2022-12-29T02:48:22.608Z,-3.93
2022-12-29T02:51:08.565Z,-4.00
2022-12-29T02:53:56.436Z,-4.02
2022-12-29T02:56:23.201Z,-3.95
2022-12-29T02:58:49.962Z,-4.01
2022-12-29T03:02:18.944Z,-3.93
2022-12-29T03:05:23.763Z,-3.88
2022-12-29T03:07:59.841Z,-3.92
2022-12-29T03:10:35.641Z,-3.97
2022-12-29T03:13:32.504Z,-3.85
2022-12-29T03:16:22.120Z,-3.73
2022-12-29T03:19:05.955Z,-3.80
2022-12-29T03:22:07.504Z,-3.91
2022-12-29T03:24:38.878Z,-3.94
2022-12-29T03:27:10.409Z,-3.97
2022-12-29T03:29:44.021Z,-4.00
2022-12-29T03:32:14.313Z,-3.98
2022-12-29T03:34:41.396Z,-4.06
2022-12-29T03:37:12.526Z,-4.04
2022-12-29T03:39:39.798Z,-4.09
2022-12-29T03:42:12.748Z,-4.12
2022-12-29T03:44:43.222Z,-4.16
2022-12-29T03:47:12.814Z,-4.13
2022-12-29T03:49:40.523Z,-4.20
2022-12-29T03:52:07.811Z,-4.12
2022-12-29T03:54:34.531Z,-4.20
2022-12-29T03:57:01.310Z,-4.13
2022-12-29T03:59:28.032Z,-4.20
2022-12-29T04:01:54.858Z,-4.26
2022-12-29T04:04:21.973Z,-4.25
2022-12-29T04:06:48.778Z,-4.19
2022-12-29T04:09:15.524Z,-4.08
2022-12-29T04:11:42.373Z,-4.16
2022-12-29T04:14:09.131Z,-4.16
2022-12-29T04:16:36.916Z,-4.23
2022-12-29T04:19:03.875Z,-4.20
2022-12-29T04:21:30.622Z,-4.18
2022-12-29T04:23:57.361Z,-4.34
2022-12-29T04:26:24.182Z,-4.19
2022-12-29T04:28:51.055Z,-4.11
2022-12-29T04:31:17.864Z,-4.23
2022-12-29T04:33:45.554Z,-4.28
2022-12-29T04:36:12.337Z,-4.18
2022-12-29T04:38:39.096Z,-4.27
2022-12-29T04:41:06.087Z,-4.35
2022-12-29T04:43:32.948Z,-4.44
2022-12-29T04:45:59.824Z,-4.49
2022-12-29T04:48:26.638Z,-4.44
2022-12-29T04:50:53.464Z,-4.48
2022-12-29T04:53:20.243Z,-4.56
2022-12-29T04:55:51.066Z,-4.47
2022-12-29T04:58:22.527Z,-4.60
2022-12-29T05:00:50.085Z,-4.52
2022-12-29T05:03:16.913Z,-4.51
2022-12-29T05:05:45.176Z,-4.52
2022-12-29T05:08:12.024Z,-4.34
2022-12-29T05:10:39.115Z,-4.31
2022-12-29T05:13:05.849Z,-4.20
2022-12-29T05:15:32.620Z,-4.25
2022-12-29T05:18:00.228Z,-4.35
2022-12-29T05:20:27.038Z,-4.37
2022-12-29T05:22:53.799Z,-4.21
2022-12-29T05:25:20.631Z,-4.07
2022-12-29T05:27:47.518Z,-4.24
2022-12-29T05:30:14.555Z,-4.08
2022-12-29T05:32:41.352Z,-4.16
2022-12-29T05:35:08.712Z,-4.26
2022-12-29T05:37:35.530Z,-4.17
2022-12-29T05:40:02.321Z,-4.31
2022-12-29T05:42:29.038Z,-4.35
2022-12-29T05:44:55.779Z,-4.46
2022-12-29T05:47:22.515Z,-4.54
2022-12-29T05:49:49.447Z,-4.25
2022-12-29T05:52:16.202Z,-4.42
2022-12-29T05:54:44.053Z,-4.42
2022-12-29T05:57:11.080Z,-4.19
2022-12-29T05:59:37.789Z,-4.36
2022-12-29T06:02:04.873Z,-4.23
2022-12-29T06:04:31.698Z,-4.38
2022-12-29T06:06:58.437Z,-4.25
2022-12-29T06:09:25.490Z,-4.37
2022-12-29T06:11:52.308Z,-4.55
2022-12-29T06:14:19.097Z,-4.60
2022-12-29T06:16:45.951Z,-4.66
2022-12-29T06:19:12.732Z,-4.60
2022-12-29T06:21:39.482Z,-4.79
2022-12-29T06:24:06.878Z,-4.69
2022-12-29T06:26:33.581Z,-4.50
2022-12-29T06:29:00.463Z,-4.44
2022-12-29T06:31:27.304Z,-4.67
2022-12-29T06:33:54.120Z,-4.38
2022-12-29T06:36:20.849Z,-4.43
2022-12-29T06:38:47.594Z,-4.49
2022-12-29T06:41:14.308Z,-4.50
2022-12-29T06:43:41.084Z,-4.37
2022-12-29T06:46:07.854Z,-4.40
2022-12-29T06:48:34.715Z,-4.43
2022-12-29T06:51:01.548Z,-4.25
2022-12-29T06:53:28.382Z,-4.26
2022-12-29T06:55:55.401Z,-4.13
2022-12-29T06:58:22.189Z,-4.01
2022-12-29T07:00:49.645Z,-4.08
2022-12-29T07:03:17.002Z,-4.03
2022-12-29T07:05:43.995Z,-4.07
2022-12-29T07:08:10.842Z,-4.03
2022-12-29T07:10:37.635Z,-4.06
2022-12-29T07:13:04.423Z,-3.92
2022-12-29T07:15:31.273Z,-4.12
2022-12-29T07:17:58.056Z,-3.90
2022-12-29T07:20:26.936Z,-4.13
2022-12-29T07:22:54.281Z,-3.83
2022-12-29T07:25:21.037Z,-3.88
2022-12-29T07:27:47.961Z,-3.88
2022-12-29T07:30:14.777Z,-3.90
2022-12-29T07:32:42.025Z,-3.90
2022-12-29T07:35:09.685Z,-3.70
2022-12-29T07:37:36.449Z,-3.63
2022-12-29T07:40:04.552Z,-3.60
2022-12-29T07:42:32.305Z,-3.60
2022-12-29T07:44:59.033Z,-3.69
2022-12-29T07:47:26.515Z,-3.57
2022-12-29T07:49:53.245Z,-3.57
2022-12-29T07:52:20.071Z,-3.60
2022-12-29T07:54:46.903Z,-3.35
2022-12-29T07:57:13.673Z,-3.40
2022-12-29T07:59:40.428Z,-3.36
2022-12-29T08:02:09.641Z,-3.29
2022-12-29T08:04:36.488Z,-3.20
2022-12-29T08:07:03.247Z,-3.22
2022-12-29T08:09:30.127Z,-3.22
2022-12-29T08:11:56.892Z,-3.29
2022-12-29T08:14:23.626Z,-3.36
2022-12-29T08:16:50.833Z,-3.14
2022-12-29T08:19:17.575Z,-3.10
2022-12-29T08:21:44.423Z,-3.07
2022-12-29T08:24:11.296Z,-3.01
2022-12-29T08:26:38.087Z,-2.77
2022-12-29T08:29:04.812Z,-3.06
2022-12-29T08:31:31.613Z,-3.11
2022-12-29T08:33:58.418Z,-2.68
2022-12-29T08:36:25.200Z,-2.38
2022-12-29T08:38:52.072Z,-2.35
2022-12-29T08:41:18.842Z,-2.36
2022-12-29T08:43:49.503Z,-2.26
2022-12-29T08:46:17.826Z,-2.24
2022-12-29T08:48:44.709Z,-2.09
2022-12-29T08:51:11.537Z,-2.07
2022-12-29T08:53:38.324Z,-1.98
2022-12-29T08:56:05.859Z,-1.74
2022-12-29T08:58:33.258Z,-1.75
2022-12-29T09:01:00.163Z,-1.72
2022-12-29T09:06:16.100Z,-1.24
2022-12-29T09:08:42.908Z,-1.26
2022-12-29T09:11:20.193Z,-1.11
2022-12-29T09:13:47.862Z,-1.07
2022-12-29T09:16:15.281Z,-1.07
2022-12-29T09:18:42.426Z,-0.91
2022-12-29T09:21:11.228Z,-0.83
2022-12-29T09:23:38.880Z,-0.65
2022-12-29T09:26:06.842Z,-0.70
2022-12-29T09:28:33.585Z,-0.54
2022-12-29T09:31:01.468Z,-0.47
2022-12-29T09:33:28.951Z,-0.56
2022-12-29T09:35:59.485Z,-0.40
2022-12-29T09:38:28.554Z,-0.28
2022-12-29T09:41:01.132Z,-0.21
2022-12-29T09:43:52.153Z,0.11
2022-12-29T09:46:38.550Z,-0.06
2022-12-29T09:49:32.625Z,0.24
2022-12-29T09:52:07.494Z,0.38
2022-12-29T09:55:02.929Z,0.68
2022-12-29T09:57:46.607Z,0.79
2022-12-29T10:00:22.829Z,1.14
2022-12-29T10:03:23.713Z,1.45
2022-12-29T10:06:12.565Z,1.83
2022-12-29T10:09:02.331Z,1.72
2022-12-29T10:11:56.662Z,1.74
2022-12-29T10:15:01.925Z,1.52
2022-12-29T10:17:28.660Z,1.85
2022-12-29T10:20:26.217Z,2.10
2022-12-29T10:22:55.592Z,2.03
2022-12-29T10:25:31.109Z,2.15
2022-12-29T10:28:05.174Z,2.02
2022-12-29T10:30:35.374Z,2.27
2022-12-29T10:33:07.735Z,2.18
2022-12-29T10:35:40.095Z,2.13
2022-12-29T10:38:21.732Z,2.07
2022-12-29T10:40:57.493Z,2.02
2022-12-29T10:43:38.298Z,1.96
2022-12-29T10:46:14.554Z,1.83
2022-12-29T10:48:41.531Z,1.73
2022-12-29T10:51:09.787Z,1.65
2022-12-29T10:53:44.859Z,1.90
2022-12-29T10:56:29.899Z,2.11
2022-12-29T10:58:59.635Z,1.82
2022-12-29T11:01:36.140Z,2.11
2022-12-29T11:04:36.859Z,2.15
2022-12-29T11:07:04.738Z,2.13
2022-12-29T11:09:42.410Z,2.24
2022-12-29T11:12:32.255Z,2.19
2022-12-29T11:15:10.988Z,2.35
2022-12-29T11:17:49.254Z,2.21
2022-12-29T11:20:33.085Z,2.28
2022-12-29T11:23:00.907Z,2.15
2022-12-29T11:25:28.053Z,2.07
2022-12-29T11:28:01.791Z,2.24
2022-12-29T11:30:32.389Z,2.20
2022-12-29T11:33:03.885Z,2.20
2022-12-29T11:35:42.338Z,2.25
2022-12-29T11:38:35.858Z,2.40
2022-12-29T11:41:05.029Z,2.56
2022-12-29T11:43:39.215Z,2.42
2022-12-29T11:46:06.602Z,2.49
2022-12-29T11:48:40.916Z,2.63
2022-12-29T11:51:09.274Z,2.84
2022-12-29T11:53:48.936Z,3.20
2022-12-29T11:56:17.784Z,3.34
2022-12-29T11:58:44.872Z,3.48
2022-12-29T12:01:37.778Z,3.41
2022-12-29T12:04:18.985Z,3.74
2022-12-29T12:07:02.572Z,3.63
2022-12-29T12:09:48.706Z,3.57
2022-12-29T12:12:30.783Z,3.58
2022-12-29T12:15:03.010Z,3.57
2022-12-29T12:17:41.603Z,3.52
2022-12-29T12:20:08.424Z,3.45
2022-12-29T12:22:40.036Z,3.26
2022-12-29T12:25:19.735Z,3.58
2022-12-29T12:27:57.023Z,3.39
2022-12-29T12:30:27.892Z,3.50
2022-12-29T12:33:13.312Z,3.66
2022-12-29T12:36:01.605Z,3.69
2022-12-29T12:39:05.166Z,3.71
2022-12-29T12:41:42.912Z,3.73
2022-12-29T12:44:37.550Z,3.74
2022-12-29T12:47:30.395Z,3.63
2022-12-29T12:50:19.626Z,3.59
2022-12-29T12:53:01.817Z,3.74
2022-12-29T12:55:40.370Z,3.79
2022-12-29T13:00:50.349Z,3.82
2022-12-29T13:03:30.334Z,3.76
2022-12-29T13:06:04.355Z,3.74
2022-12-29T13:08:39.837Z,3.82
2022-12-29T13:11:21.592Z,3.76
2022-12-29T13:14:17.214Z,3.74
2022-12-29T13:16:59.447Z,3.71
2022-12-29T13:19:39.261Z,3.70
2022-12-29T13:22:37.463Z,3.65
2022-12-29T13:25:28.058Z,3.41
2022-12-29T13:28:01.790Z,3.30
2022-12-29T13:30:51.209Z,3.31
2022-12-29T13:33:33.409Z,3.32
2022-12-29T13:36:44.353Z,3.42
2022-12-29T13:39:26.297Z,3.51
2022-12-29T13:41:55.449Z,3.54
2022-12-29T13:44:36.686Z,3.39
2022-12-29T13:47:22.940Z,3.15
2022-12-29T13:49:52.473Z,3.11
2022-12-29T13:52:46.748Z,3.31
2022-12-29T13:55:46.963Z,3.09
2022-12-29T13:58:29.075Z,2.95
2022-12-29T14:01:11.148Z,2.86
2022-12-29T14:03:49.410Z,2.99
2022-12-29T14:06:23.502Z,2.75
2022-12-29T14:08:53.361Z,2.77
2022-12-29T14:11:25.888Z,2.74
2022-12-29T14:13:52.926Z,2.57
2022-12-29T14:16:27.004Z,2.75
2022-12-29T14:18:55.366Z,2.46
2022-12-29T14:21:28.997Z,2.49
2022-12-29T14:24:01.917Z,2.53
2022-12-29T14:26:31.906Z,2.47
2022-12-29T14:29:17.666Z,2.22
2022-12-29T14:31:44.773Z,1.99
2022-12-29T14:34:11.526Z,2.26
2022-12-29T14:37:02.362Z,2.07
2022-12-29T14:39:46.209Z,2.29
2022-12-29T14:42:16.412Z,2.07
2022-12-29T14:44:53.837Z,1.89
2022-12-29T14:47:32.476Z,1.84
2022-12-29T14:50:24.287Z,1.82
2022-12-29T14:53:03.778Z,1.70
2022-12-29T14:55:53.056Z,1.83
2022-12-29T14:58:23.157Z,1.72
2022-12-29T15:00:50.524Z,1.28
2022-12-29T15:03:27.121Z,1.28
2022-12-29T15:05:55.671Z,1.51
2022-12-29T15:08:25.866Z,1.32
2022-12-29T15:11:02.122Z,1.15
2022-12-29T15:13:38.030Z,1.12
2022-12-29T15:16:05.845Z,1.04
2022-12-29T15:18:34.289Z,1.27
2022-12-29T15:21:04.685Z,1.14
2022-12-29T15:23:33.791Z,0.98
2022-12-29T15:26:09.065Z,1.16
2022-12-29T15:28:43.177Z,0.96
2022-12-29T15:31:20.053Z,0.89
2022-12-29T15:33:51.227Z,1.06
2022-12-29T15:36:24.319Z,0.84
2022-12-29T15:38:52.037Z,0.82
2022-12-29T15:41:57.115Z,0.68
2022-12-29T15:44:33.170Z,0.75
2022-12-29T15:47:05.218Z,0.62
2022-12-29T15:49:32.935Z,0.55
2022-12-29T15:52:00.219Z,0.44
2022-12-29T15:54:32.610Z,0.39
2022-12-29T15:56:59.483Z,0.47
2022-12-29T15:59:34.816Z,0.31
2022-12-29T16:02:10.112Z,0.41
2022-12-29T16:05:01.470Z,0.51
2022-12-29T16:07:37.338Z,0.38
2022-12-29T16:10:27.144Z,0.55
2022-12-29T16:12:54.096Z,0.51
2022-12-29T16:15:21.275Z,0.50
2022-12-29T16:17:56.765Z,0.44
2022-12-29T16:20:30.033Z,0.67
2022-12-29T16:22:58.810Z,0.68
2022-12-29T16:25:30.203Z,0.73
2022-12-29T16:27:56.965Z,0.71
2022-12-29T16:30:32.867Z,0.86
2022-12-29T16:33:02.920Z,0.70
2022-12-29T16:35:39.640Z,0.81
2022-12-29T16:38:22.700Z,0.99
2022-12-29T16:41:03.606Z,0.87
2022-12-29T16:43:35.314Z,0.81
2022-12-29T16:46:02.148Z,0.85
2022-12-29T16:48:31.823Z,0.99
2022-12-29T16:51:17.061Z,0.85
2022-12-29T16:53:52.407Z,0.81
2022-12-29T16:56:24.576Z,0.78
2022-12-29T16:58:55.460Z,0.65
2022-12-29T17:01:22.467Z,0.59
2022-12-29T17:03:53.915Z,0.66
2022-12-29T17:06:22.836Z,0.90
2022-12-29T17:08:50.690Z,0.81
2022-12-29T17:11:59.330Z,0.65
2022-12-29T17:14:48.472Z,0.61
2022-12-29T17:17:22.144Z,0.76
2022-12-29T17:19:55.234Z,0.70
2022-12-29T17:22:27.868Z,0.62
2022-12-29T17:24:56.195Z,0.66
2022-12-29T17:27:37.937Z,0.64
2022-12-29T17:30:16.548Z,0.59
2022-12-29T17:32:47.324Z,0.54
2022-12-29T17:35:18.989Z,0.53
2022-12-29T17:37:45.937Z,0.43
2022-12-29T17:40:18.621Z,0.39
2022-12-29T17:42:47.896Z,0.32
2022-12-29T17:45:23.258Z,0.06
2022-12-29T17:47:50.375Z,-0.02
2022-12-29T17:50:21.478Z,0.22
2022-12-29T17:52:52.960Z,0.31
2022-12-29T17:55:22.574Z,0.17
2022-12-29T17:57:49.801Z,0.02
2022-12-29T18:00:19.020Z,0.02
2022-12-29T18:02:46.300Z,-0.09
2022-12-29T18:05:20.812Z,-0.20
2022-12-29T18:07:48.480Z,-0.27
2022-12-29T18:10:15.921Z,-0.31
2022-12-29T18:12:45.241Z,-0.08
2022-12-29T18:15:25.911Z,-0.17
2022-12-29T18:18:12.217Z,-0.26
2022-12-29T18:20:40.501Z,-0.31
2022-12-29T18:23:16.086Z,-0.32
2022-12-29T18:25:46.143Z,-0.28
2022-12-29T18:28:12.841Z,-0.11
2022-12-29T18:30:39.705Z,-0.31
2022-12-29T18:33:06.463Z,-0.35
2022-12-29T18:35:43.275Z,-0.05
2022-12-29T18:38:10.234Z,-0.31
2022-12-29T18:40:37.447Z,-0.32
2022-12-29T18:43:04.201Z,-0.19
2022-12-29T18:45:33.288Z,-0.19
2022-12-29T18:48:00.901Z,-0.40
2022-12-29T18:50:28.479Z,-0.34
2022-12-29T18:53:01.626Z,-0.52
2022-12-29T18:55:30.643Z,-0.36
2022-12-29T18:57:57.597Z,-0.39
2022-12-29T19:00:24.517Z,-0.47
2022-12-29T19:02:52.656Z,-0.48
2022-12-29T19:05:23.433Z,-0.42
2022-12-29T19:07:51.377Z,-0.41
2022-12-29T19:10:20.245Z,-0.38
2022-12-29T19:12:47.228Z,-0.39
2022-12-29T19:15:22.318Z,-0.42
2022-12-29T19:18:01.921Z,-0.25
2022-12-29T19:20:37.447Z,-0.40
2022-12-29T19:23:07.071Z,-0.74
2022-12-29T19:25:33.975Z,-0.37
2022-12-29T19:28:02.444Z,-0.58
2022-12-29T19:30:29.670Z,-0.71
2022-12-29T19:33:04.139Z,-0.70
2022-12-29T19:35:33.864Z,-0.60
2022-12-29T19:38:00.800Z,-0.71
2022-12-29T19:40:27.834Z,-0.71
2022-12-29T19:42:57.076Z,-0.83
2022-12-29T19:45:23.981Z,-0.81
2022-12-29T19:47:50.739Z,-0.81
2022-12-29T19:50:18.070Z,-0.73
2022-12-29T19:52:45.579Z,-0.80
2022-12-29T19:55:16.872Z,-0.90
2022-12-29T19:57:45.225Z,-0.85
2022-12-29T20:00:13.783Z,-1.00
2022-12-29T20:02:41.799Z,-0.98
2022-12-29T20:05:09.917Z,-0.72
2022-12-29T20:07:37.244Z,-0.70
2022-12-29T20:10:06.386Z,-0.93
2022-12-29T20:12:33.587Z,-1.03
2022-12-29T20:15:00.485Z,-1.26
2022-12-29T20:18:02.287Z,-1.11
2022-12-29T20:20:14.337Z,-1.13
2022-12-29T20:22:41.066Z,-1.02
2022-12-29T20:27:54.636Z,-1.11
2022-12-29T20:30:21.607Z,-1.05
2022-12-29T20:32:48.625Z,-1.04
2022-12-29T20:35:15.426Z,-0.98
2022-12-29T20:37:42.258Z,-1.05
2022-12-29T20:40:09.196Z,-1.15
2022-12-29T20:42:36.262Z,-1.12
2022-12-29T20:45:03.269Z,-1.21
2022-12-29T20:47:30.521Z,-1.21
2022-12-29T20:49:57.536Z,-1.11
2022-12-29T20:52:24.389Z,-1.24
2022-12-29T20:54:51.364Z,-1.49
2022-12-29T20:57:18.338Z,-1.20
2022-12-29T20:59:46.142Z,-1.25
2022-12-29T21:02:24.333Z,-1.13
2022-12-29T21:05:23.341Z,-1.51
2022-12-29T21:07:38.412Z,-1.25
2022-12-29T21:10:05.612Z,-1.17
2022-12-29T21:12:32.376Z,-1.39
2022-12-29T21:14:59.144Z,-1.33
2022-12-29T21:17:25.873Z,-1.11
2022-12-29T21:19:52.674Z,-1.15
2022-12-29T21:22:19.478Z,-1.21
2022-12-29T21:24:46.198Z,-1.38
2022-12-29T21:27:13.021Z,-1.45
2022-12-29T21:29:39.751Z,-1.41
2022-12-29T21:32:07.063Z,-1.16
2022-12-29T21:34:35.024Z,-1.21
2022-12-29T21:37:02.040Z,-1.49
2022-12-29T21:39:28.941Z,-1.37
2022-12-29T21:42:00.550Z,-1.45
2022-12-29T21:44:46.451Z,-1.53
2022-12-29T21:47:13.382Z,-1.57
2022-12-29T21:49:40.130Z,-1.73
2022-12-29T21:52:06.860Z,-1.59
2022-12-29T21:54:52.350Z,-1.73
2022-12-29T21:57:38.304Z,-1.40
2022-12-29T22:00:28.861Z,-1.65
2022-12-29T22:03:22.503Z,-1.75
2022-12-29T22:06:08.902Z,-1.46
2022-12-29T22:08:54.197Z,-1.54
2022-12-29T22:11:39.517Z,-1.67
2022-12-29T22:14:06.580Z,-1.65
2022-12-29T22:16:33.555Z,-1.73
2022-12-29T22:19:00.286Z,-1.58
2022-12-29T22:21:27.048Z,-1.48
2022-12-29T22:23:53.883Z,-1.55
2022-12-29T22:26:20.656Z,-1.60
2022-12-29T22:28:48.142Z,-1.64
2022-12-29T22:31:27.245Z,-1.62
2022-12-29T22:33:56.311Z,-1.70
2022-12-29T22:36:24.264Z,-1.66
2022-12-29T22:38:51.200Z,-1.34
2022-12-29T22:41:18.266Z,-1.48
2022-12-29T22:43:45.207Z,-1.49
2022-12-29T22:46:12.227Z,-1.37
2022-12-29T22:48:39.213Z,-1.50
2022-12-29T22:51:06.194Z,-1.73
2022-12-29T22:53:33.281Z,-1.40
2022-12-29T22:56:13.729Z,-1.43
2022-12-29T22:58:44.689Z,-1.49
2022-12-29T23:01:13.651Z,-1.57
2022-12-29T23:03:41.092Z,-1.24
2022-12-29T23:06:11.235Z,-1.41
2022-12-29T23:08:39.443Z,-1.73
2022-12-29T23:11:08.896Z,-1.57
2022-12-29T23:13:35.998Z,-1.43
2022-12-29T23:16:03.351Z,-1.29
2022-12-29T23:18:30.559Z,-1.49
2022-12-29T23:20:57.511Z,-1.50
2022-12-29T23:23:48.908Z,-1.58
2022-12-29T23:26:18.167Z,-1.32
2022-12-29T23:28:45.097Z,-1.53
2022-12-29T23:31:12.157Z,-1.60
2022-12-29T23:33:38.914Z,-1.56
2022-12-29T23:36:06.107Z,-1.60
2022-12-29T23:38:33.083Z,-1.58
2022-12-29T23:41:00.145Z,-1.60
2022-12-29T23:43:27.142Z,-1.66
2022-12-29T23:45:53.904Z,-1.62
2022-12-29T23:48:20.732Z,-1.85
2022-12-29T23:50:48.468Z,-1.65
2022-12-29T23:53:15.498Z,-1.75
2022-12-29T23:55:43.890Z,-1.65
2022-12-29T23:58:11.413Z,-1.34
